Ploërmel Loyat Airfield

METAR LFRV TAF LFRH
10 °C
°C
-
°C
18m
Âge
12:18:08
LT
11:18
UTC
0 ft

1.000

2.000

3.000

4.000

5.000

FEW 1.300
OVC 4.900
VFR
<?= Yii::t('app', 'Wind direction') ?> <?= Yii::t('app', 'of'); ?>
360°
18:17
Coucher de soleil
88%
Humidité
Cisaillement du vent
Fermé/neige
Portée visuelle RWY
Condition RWY
Visibilité vert.
Visibilité min.
CAVOK
Tendance
Correction
Rapport spécial
1043 hPa
QNH
METAR LFRV 051100Z AUTO 36006KT 330V030 9999 FEW013 OVC049 10/08 Q1043
Couvert
6 kt
6 kt
12:00
MVFR
5 kt
13:00
MVFR
5 kt
14:00
MVFR
5 kt
15:00
VFR
5 kt
16:00
VFR
5 kt
17:00
VFR
5 kt
18:00
VFR
5 kt
10 km+
Vue
4.900 ft
Base cloud
6 kt
Vent
metar-taf.com/LFRP

Metar-Taf.com

Décodeur visuel

Nous et des tiers suivons ton comportement Internet sur notre site Web à l'aide de cookies. Si tu continues, nous supposons que tu es d'accord avec notre Politique en matière de cookies.